This is the latest recevied weather packets stored in our database for station/object IR1CH-3. If no packets are shown the sender has not sent any weather packets the latest 10 day(s).
| Time | Temp. | Humidity | Pressure | Rain* | Wind** | Luminosity | Snow |
|---|---|---|---|---|---|---|---|
| 1788160103 | 24.44° C | 99% | 1014.3 hPa | - | - | - | - |
| 1788158302 | 24.44° C | 99% | 1014 hPa | - | - | - | - |
| 1788156502 | 25° C | 97% | 1014 hPa | - | - | - | - |
| 1788154702 | 25° C | 95% | 1013.7 hPa | - | - | - | - |
| 1788152901 | 22.78° C | 99% | 1014.1 hPa | - | - | - | - |
| 1788151101 | 23.33° C | 99% | 1014.2 hPa | - | - | - | - |
| 1788149301 | 23.33° C | 99% | 1013.8 hPa | - | - | - | - |
| 1788147500 | 23.33° C | 98% | 1013.7 hPa | - | - | - | - |
| 1788145700 | 23.89° C | 96% | 1013.7 hPa | - | - | - | - |
| 1788143900 | 23.33° C | 97% | 1013.9 hPa | - | - | - | - |
| 1788122295 | 25.56° C | 88% | 1013.3 hPa | - | - | - | - |
| 1788116895 | 26.11° C | 88% | 1013.3 hPa | - | - | - | - |
| 1788107893 | 25° C | 99% | 1013.1 hPa | - | - | - | - |
| 1788106092 | 26.11° C | 95% | 1012.8 hPa | - | - | - | - |
| 1788104292 | 26.11° C | 95% | 1013 hPa | - | - | - | - |
| 1788102492 | 26.11° C | 96% | 1013.1 hPa | - | - | - | - |
| 1788100691 | 26.11° C | 95% | 1013.2 hPa | - | - | - | - |
| 1788098891 | 26.67° C | 96% | 1013.3 hPa | - | - | - | - |
| 1788097091 | 27.22° C | 92% | 1013.4 hPa | - | - | - | - |
| 1788095290 | 26.67° C | 92% | 1013.6 hPa | - | - | - | - |
| 1788093514 | 27.78° C | 90% | 738.9 hPa | - | - | - | - |
| 1788091710 | 28.33° C | 89% | 739.1 hPa | - | - | - | - |
| 1788089907 | 27.22° C | 89% | 738.8 hPa | - | - | - | - |
| 1788088104 | 28.89° C | 83% | 739.9 hPa | - | - | - | - |
| 1788086300 | 28.33° C | 83% | 740.1 hPa | - | - | - | - |
* Rain since midnight (hover to see other rain measurements)
** Current wind speed in m/s (hover to see current wind gust speed)